<?xml version="1.0" encoding="UTF-8" standalone="no" ?>
<gpx xmlns="http://www.topografix.com/GPX/1/1" xmlns:xsi="http://www.w3.org/2001/XMLSchema-instance" xsi:schemaLocation="http://www.topografix.com/GPX/1/1 http://www.topografix.com/GPX/1/1/gpx.xsd" version="1.1" creator="VisuGPX - https://www.visugpx.com">
  <metadata>
    <name>Sortie Dominicale Olivier 13/02/2011</name>
    <desc><![CDATA[Poor lonesone VTT boy]]></desc>
  </metadata>
  <trk>
    <name><![CDATA[Tracé 13 févr. 2011 09:08:48]]></name>
    <trkseg>
      <trkpt lat="49.89398" lon="1.03613">
        <ele>324</ele>
        <time>2011-02-13T08:08:48Z</time>
      </trkpt>
      <trkpt lat="49.89398" lon="1.03613">
        <ele>90</ele>
        <time>2011-02-13T08:08:48Z</time>
      </trkpt>
      <trkpt lat="49.89594" lon="1.03479">
        <ele>315</ele>
        <time>2011-02-13T08:09:44Z</time>
      </trkpt>
      <trkpt lat="49.89594" lon="1.03479">
        <ele>315</ele>
        <time>2011-02-13T08:09:45Z</time>
      </trkpt>
      <trkpt lat="49.8962" lon="1.03511">
        <ele>311</ele>
        <time>2011-02-13T08:10:13Z</time>
      </trkpt>
      <trkpt lat="49.89602" lon="1.03573">
        <ele>316</ele>
        <time>2011-02-13T08:10:22Z</time>
      </trkpt>
      <trkpt lat="49.89586" lon="1.03622">
        <ele>318</ele>
        <time>2011-02-13T08:10:41Z</time>
      </trkpt>
      <trkpt lat="49.89572" lon="1.03565">
        <ele>313</ele>
        <time>2011-02-13T08:10:55Z</time>
      </trkpt>
      <trkpt lat="49.89572" lon="1.03583">
        <ele>314</ele>
        <time>2011-02-13T08:11:09Z</time>
      </trkpt>
      <trkpt lat="49.89573" lon="1.03628">
        <ele>311</ele>
        <time>2011-02-13T08:11:23Z</time>
      </trkpt>
      <trkpt lat="49.89573" lon="1.03655">
        <ele>306</ele>
        <time>2011-02-13T08:11:37Z</time>
      </trkpt>
      <trkpt lat="49.89568" lon="1.03646">
        <ele>296</ele>
        <time>2011-02-13T08:12:05Z</time>
      </trkpt>
      <trkpt lat="49.89564" lon="1.03621">
        <ele>293</ele>
        <time>2011-02-13T08:12:19Z</time>
      </trkpt>
      <trkpt lat="49.89557" lon="1.03557">
        <ele>288</ele>
        <time>2011-02-13T08:12:33Z</time>
      </trkpt>
      <trkpt lat="49.89549" lon="1.03555">
        <ele>238</ele>
        <time>2011-02-13T08:15:43Z</time>
      </trkpt>
      <trkpt lat="49.89511" lon="1.03533">
        <ele>186</ele>
        <time>2011-02-13T08:15:57Z</time>
      </trkpt>
      <trkpt lat="49.89535" lon="1.03604">
        <ele>152</ele>
        <time>2011-02-13T08:16:11Z</time>
      </trkpt>
      <trkpt lat="49.89608" lon="1.0374">
        <ele>145</ele>
        <time>2011-02-13T08:16:25Z</time>
      </trkpt>
      <trkpt lat="49.89701" lon="1.03904">
        <ele>136</ele>
        <time>2011-02-13T08:16:39Z</time>
      </trkpt>
      <trkpt lat="49.8982" lon="1.04046">
        <ele>129</ele>
        <time>2011-02-13T08:16:53Z</time>
      </trkpt>
      <trkpt lat="49.89932" lon="1.04149">
        <ele>121</ele>
        <time>2011-02-13T08:17:07Z</time>
      </trkpt>
      <trkpt lat="49.89947" lon="1.04328">
        <ele>114</ele>
        <time>2011-02-13T08:17:21Z</time>
      </trkpt>
      <trkpt lat="49.89929" lon="1.04482">
        <ele>101</ele>
        <time>2011-02-13T08:17:35Z</time>
      </trkpt>
      <trkpt lat="49.89946" lon="1.04644">
        <ele>95</ele>
        <time>2011-02-13T08:17:49Z</time>
      </trkpt>
      <trkpt lat="49.89956" lon="1.04821">
        <ele>91</ele>
        <time>2011-02-13T08:18:03Z</time>
      </trkpt>
      <trkpt lat="49.89985" lon="1.05011">
        <ele>89</ele>
        <time>2011-02-13T08:18:17Z</time>
      </trkpt>
      <trkpt lat="49.90033" lon="1.051">
        <ele>83</ele>
        <time>2011-02-13T08:18:31Z</time>
      </trkpt>
      <trkpt lat="49.90135" lon="1.05151">
        <ele>77</ele>
        <time>2011-02-13T08:18:45Z</time>
      </trkpt>
      <trkpt lat="49.90256" lon="1.05125">
        <ele>67</ele>
        <time>2011-02-13T08:18:59Z</time>
      </trkpt>
      <trkpt lat="49.90366" lon="1.05062">
        <ele>62</ele>
        <time>2011-02-13T08:19:13Z</time>
      </trkpt>
      <trkpt lat="49.90452" lon="1.04976">
        <ele>61</ele>
        <time>2011-02-13T08:19:27Z</time>
      </trkpt>
      <trkpt lat="49.905" lon="1.04848">
        <ele>59</ele>
        <time>2011-02-13T08:19:41Z</time>
      </trkpt>
      <trkpt lat="49.9054" lon="1.04703">
        <ele>57</ele>
        <time>2011-02-13T08:19:55Z</time>
      </trkpt>
      <trkpt lat="49.90584" lon="1.04559">
        <ele>54</ele>
        <time>2011-02-13T08:20:09Z</time>
      </trkpt>
      <trkpt lat="49.90627" lon="1.04417">
        <ele>52</ele>
        <time>2011-02-13T08:20:23Z</time>
      </trkpt>
      <trkpt lat="49.90682" lon="1.04307">
        <ele>51</ele>
        <time>2011-02-13T08:20:37Z</time>
      </trkpt>
      <trkpt lat="49.90753" lon="1.04222">
        <ele>51</ele>
        <time>2011-02-13T08:20:51Z</time>
      </trkpt>
      <trkpt lat="49.90826" lon="1.04132">
        <ele>52</ele>
        <time>2011-02-13T08:21:05Z</time>
      </trkpt>
      <trkpt lat="49.90897" lon="1.04044">
        <ele>52</ele>
        <time>2011-02-13T08:21:19Z</time>
      </trkpt>
      <trkpt lat="49.90961" lon="1.03961">
        <ele>52</ele>
        <time>2011-02-13T08:21:33Z</time>
      </trkpt>
      <trkpt lat="49.91025" lon="1.03872">
        <ele>53</ele>
        <time>2011-02-13T08:21:47Z</time>
      </trkpt>
      <trkpt lat="49.91087" lon="1.03758">
        <ele>52</ele>
        <time>2011-02-13T08:22:02Z</time>
      </trkpt>
      <trkpt lat="49.91147" lon="1.03653">
        <ele>52</ele>
        <time>2011-02-13T08:22:16Z</time>
      </trkpt>
      <trkpt lat="49.91216" lon="1.03562">
        <ele>53</ele>
        <time>2011-02-13T08:22:30Z</time>
      </trkpt>
      <trkpt lat="49.91287" lon="1.03482">
        <ele>53</ele>
        <time>2011-02-13T08:22:44Z</time>
      </trkpt>
      <trkpt lat="49.91352" lon="1.03402">
        <ele>53</ele>
        <time>2011-02-13T08:22:58Z</time>
      </trkpt>
      <trkpt lat="49.914" lon="1.03303">
        <ele>53</ele>
        <time>2011-02-13T08:23:12Z</time>
      </trkpt>
      <trkpt lat="49.91429" lon="1.03188">
        <ele>53</ele>
        <time>2011-02-13T08:23:26Z</time>
      </trkpt>
      <trkpt lat="49.91486" lon="1.03128">
        <ele>54</ele>
        <time>2011-02-13T08:23:40Z</time>
      </trkpt>
      <trkpt lat="49.91572" lon="1.03184">
        <ele>54</ele>
        <time>2011-02-13T08:23:54Z</time>
      </trkpt>
      <trkpt lat="49.91645" lon="1.03149">
        <ele>53</ele>
        <time>2011-02-13T08:24:08Z</time>
      </trkpt>
      <trkpt lat="49.91682" lon="1.03118">
        <ele>53</ele>
        <time>2011-02-13T08:24:22Z</time>
      </trkpt>
      <trkpt lat="49.91707" lon="1.03168">
        <ele>53</ele>
        <time>2011-02-13T08:24:36Z</time>
      </trkpt>
      <trkpt lat="49.91739" lon="1.03246">
        <ele>52</ele>
        <time>2011-02-13T08:24:50Z</time>
      </trkpt>
      <trkpt lat="49.91772" lon="1.03337">
        <ele>52</ele>
        <time>2011-02-13T08:25:04Z</time>
      </trkpt>
      <trkpt lat="49.91809" lon="1.03431">
        <ele>52</ele>
        <time>2011-02-13T08:25:18Z</time>
      </trkpt>
      <trkpt lat="49.91831" lon="1.03525">
        <ele>52</ele>
        <time>2011-02-13T08:25:32Z</time>
      </trkpt>
      <trkpt lat="49.91819" lon="1.0359">
        <ele>52</ele>
        <time>2011-02-13T08:25:46Z</time>
      </trkpt>
      <trkpt lat="49.91812" lon="1.03649">
        <ele>52</ele>
        <time>2011-02-13T08:26:00Z</time>
      </trkpt>
      <trkpt lat="49.91795" lon="1.03693">
        <ele>53</ele>
        <time>2011-02-13T08:26:14Z</time>
      </trkpt>
      <trkpt lat="49.91776" lon="1.03715">
        <ele>54</ele>
        <time>2011-02-13T08:26:28Z</time>
      </trkpt>
      <trkpt lat="49.91773" lon="1.03746">
        <ele>55</ele>
        <time>2011-02-13T08:26:42Z</time>
      </trkpt>
      <trkpt lat="49.91777" lon="1.03777">
        <ele>56</ele>
        <time>2011-02-13T08:26:56Z</time>
      </trkpt>
      <trkpt lat="49.9178" lon="1.03805">
        <ele>57</ele>
        <time>2011-02-13T08:27:10Z</time>
      </trkpt>
      <trkpt lat="49.91787" lon="1.03846">
        <ele>59</ele>
        <time>2011-02-13T08:27:24Z</time>
      </trkpt>
      <trkpt lat="49.91791" lon="1.0389">
        <ele>61</ele>
        <time>2011-02-13T08:27:38Z</time>
      </trkpt>
      <trkpt lat="49.91797" lon="1.03922">
        <ele>63</ele>
        <time>2011-02-13T08:27:52Z</time>
      </trkpt>
      <trkpt lat="49.91805" lon="1.03954">
        <ele>65</ele>
        <time>2011-02-13T08:28:06Z</time>
      </trkpt>
      <trkpt lat="49.91805" lon="1.03986">
        <ele>67</ele>
        <time>2011-02-13T08:28:20Z</time>
      </trkpt>
      <trkpt lat="49.918" lon="1.04027">
        <ele>70</ele>
        <time>2011-02-13T08:28:34Z</time>
      </trkpt>
      <trkpt lat="49.91796" lon="1.04074">
        <ele>73</ele>
        <time>2011-02-13T08:28:48Z</time>
      </trkpt>
      <trkpt lat="49.91798" lon="1.04122">
        <ele>77</ele>
        <time>2011-02-13T08:29:02Z</time>
      </trkpt>
      <trkpt lat="49.918" lon="1.04169">
        <ele>81</ele>
        <time>2011-02-13T08:29:16Z</time>
      </trkpt>
      <trkpt lat="49.91823" lon="1.0419">
        <ele>84</ele>
        <time>2011-02-13T08:29:30Z</time>
      </trkpt>
      <trkpt lat="49.91848" lon="1.0421">
        <ele>87</ele>
        <time>2011-02-13T08:29:44Z</time>
      </trkpt>
      <trkpt lat="49.91866" lon="1.04242">
        <ele>90</ele>
        <time>2011-02-13T08:29:58Z</time>
      </trkpt>
      <trkpt lat="49.91876" lon="1.04278">
        <ele>93</ele>
        <time>2011-02-13T08:30:12Z</time>
      </trkpt>
      <trkpt lat="49.91886" lon="1.04304">
        <ele>96</ele>
        <time>2011-02-13T08:30:26Z</time>
      </trkpt>
      <trkpt lat="49.91833" lon="1.04199">
        <ele>107</ele>
        <time>2011-02-13T08:30:40Z</time>
      </trkpt>
      <trkpt lat="49.91793" lon="1.04102">
        <ele>105</ele>
        <time>2011-02-13T08:30:54Z</time>
      </trkpt>
      <trkpt lat="49.91794" lon="1.03933">
        <ele>100</ele>
        <time>2011-02-13T08:31:08Z</time>
      </trkpt>
      <trkpt lat="49.91777" lon="1.03805">
        <ele>100</ele>
        <time>2011-02-13T08:31:22Z</time>
      </trkpt>
      <trkpt lat="49.91786" lon="1.03692">
        <ele>93</ele>
        <time>2011-02-13T08:31:36Z</time>
      </trkpt>
      <trkpt lat="49.91821" lon="1.0356">
        <ele>75</ele>
        <time>2011-02-13T08:31:50Z</time>
      </trkpt>
      <trkpt lat="49.91854" lon="1.0348">
        <ele>63</ele>
        <time>2011-02-13T08:32:04Z</time>
      </trkpt>
      <trkpt lat="49.91832" lon="1.03398">
        <ele>59</ele>
        <time>2011-02-13T08:32:18Z</time>
      </trkpt>
      <trkpt lat="49.91804" lon="1.03293">
        <ele>56</ele>
        <time>2011-02-13T08:32:32Z</time>
      </trkpt>
      <trkpt lat="49.9178" lon="1.03184">
        <ele>55</ele>
        <time>2011-02-13T08:32:46Z</time>
      </trkpt>
      <trkpt lat="49.91752" lon="1.03079">
        <ele>54</ele>
        <time>2011-02-13T08:33:00Z</time>
      </trkpt>
      <trkpt lat="49.91727" lon="1.02973">
        <ele>54</ele>
        <time>2011-02-13T08:33:14Z</time>
      </trkpt>
      <trkpt lat="49.91703" lon="1.02866">
        <ele>54</ele>
        <time>2011-02-13T08:33:28Z</time>
      </trkpt>
      <trkpt lat="49.91681" lon="1.02772">
        <ele>54</ele>
        <time>2011-02-13T08:33:42Z</time>
      </trkpt>
      <trkpt lat="49.91634" lon="1.0281">
        <ele>53</ele>
        <time>2011-02-13T08:33:56Z</time>
      </trkpt>
      <trkpt lat="49.91609" lon="1.02814">
        <ele>53</ele>
        <time>2011-02-13T08:34:10Z</time>
      </trkpt>
      <trkpt lat="49.91605" lon="1.02778">
        <ele>53</ele>
        <time>2011-02-13T08:34:24Z</time>
      </trkpt>
      <trkpt lat="49.91603" lon="1.02748">
        <ele>54</ele>
        <time>2011-02-13T08:34:38Z</time>
      </trkpt>
      <trkpt lat="49.91583" lon="1.02729">
        <ele>54</ele>
        <time>2011-02-13T08:34:52Z</time>
      </trkpt>
      <trkpt lat="49.91561" lon="1.02731">
        <ele>57</ele>
        <time>2011-02-13T08:35:06Z</time>
      </trkpt>
      <trkpt lat="49.91542" lon="1.02781">
        <ele>60</ele>
        <time>2011-02-13T08:35:20Z</time>
      </trkpt>
      <trkpt lat="49.91527" lon="1.02816">
        <ele>63</ele>
        <time>2011-02-13T08:35:34Z</time>
      </trkpt>
      <trkpt lat="49.91506" lon="1.02792">
        <ele>63</ele>
        <time>2011-02-13T08:35:48Z</time>
      </trkpt>
      <trkpt lat="49.91487" lon="1.02767">
        <ele>64</ele>
        <time>2011-02-13T08:36:02Z</time>
      </trkpt>
      <trkpt lat="49.91469" lon="1.02743">
        <ele>64</ele>
        <time>2011-02-13T08:36:16Z</time>
      </trkpt>
      <trkpt lat="49.91452" lon="1.02722">
        <ele>65</ele>
        <time>2011-02-13T08:36:30Z</time>
      </trkpt>
      <trkpt lat="49.9143" lon="1.02707">
        <ele>66</ele>
        <time>2011-02-13T08:36:44Z</time>
      </trkpt>
      <trkpt lat="49.91407" lon="1.02701">
        <ele>66</ele>
        <time>2011-02-13T08:36:58Z</time>
      </trkpt>
      <trkpt lat="49.91394" lon="1.02697">
        <ele>67</ele>
        <time>2011-02-13T08:37:12Z</time>
      </trkpt>
      <trkpt lat="49.91386" lon="1.02694">
        <ele>67</ele>
        <time>2011-02-13T08:37:27Z</time>
      </trkpt>
      <trkpt lat="49.91359" lon="1.02686">
        <ele>68</ele>
        <time>2011-02-13T08:37:41Z</time>
      </trkpt>
      <trkpt lat="49.91332" lon="1.02676">
        <ele>70</ele>
        <time>2011-02-13T08:37:55Z</time>
      </trkpt>
      <trkpt lat="49.91299" lon="1.02664">
        <ele>72</ele>
        <time>2011-02-13T08:38:09Z</time>
      </trkpt>
      <trkpt lat="49.91273" lon="1.02643">
        <ele>74</ele>
        <time>2011-02-13T08:38:23Z</time>
      </trkpt>
      <trkpt lat="49.91251" lon="1.02615">
        <ele>76</ele>
        <time>2011-02-13T08:38:37Z</time>
      </trkpt>
      <trkpt lat="49.91235" lon="1.02585">
        <ele>78</ele>
        <time>2011-02-13T08:38:51Z</time>
      </trkpt>
      <trkpt lat="49.91213" lon="1.02556">
        <ele>80</ele>
        <time>2011-02-13T08:39:05Z</time>
      </trkpt>
      <trkpt lat="49.9119" lon="1.0253">
        <ele>84</ele>
        <time>2011-02-13T08:39:19Z</time>
      </trkpt>
      <trkpt lat="49.91171" lon="1.02504">
        <ele>89</ele>
        <time>2011-02-13T08:39:33Z</time>
      </trkpt>
      <trkpt lat="49.9115" lon="1.02481">
        <ele>95</ele>
        <time>2011-02-13T08:39:47Z</time>
      </trkpt>
      <trkpt lat="49.91126" lon="1.02464">
        <ele>101</ele>
        <time>2011-02-13T08:40:01Z</time>
      </trkpt>
      <trkpt lat="49.91095" lon="1.02443">
        <ele>106</ele>
        <time>2011-02-13T08:40:15Z</time>
      </trkpt>
      <trkpt lat="49.91062" lon="1.02418">
        <ele>110</ele>
        <time>2011-02-13T08:40:29Z</time>
      </trkpt>
      <trkpt lat="49.91032" lon="1.02379">
        <ele>114</ele>
        <time>2011-02-13T08:40:43Z</time>
      </trkpt>
      <trkpt lat="49.90999" lon="1.02336">
        <ele>117</ele>
        <time>2011-02-13T08:40:57Z</time>
      </trkpt>
      <trkpt lat="49.90956" lon="1.02286">
        <ele>124</ele>
        <time>2011-02-13T08:41:11Z</time>
      </trkpt>
      <trkpt lat="49.90907" lon="1.02246">
        <ele>127</ele>
        <time>2011-02-13T08:41:25Z</time>
      </trkpt>
      <trkpt lat="49.90851" lon="1.02212">
        <ele>127</ele>
        <time>2011-02-13T08:41:39Z</time>
      </trkpt>
      <trkpt lat="49.90801" lon="1.0218">
        <ele>127</ele>
        <time>2011-02-13T08:41:53Z</time>
      </trkpt>
      <trkpt lat="49.9075" lon="1.0214">
        <ele>126</ele>
        <time>2011-02-13T08:42:07Z</time>
      </trkpt>
      <trkpt lat="49.90701" lon="1.02089">
        <ele>127</ele>
        <time>2011-02-13T08:42:21Z</time>
      </trkpt>
      <trkpt lat="49.90638" lon="1.02101">
        <ele>127</ele>
        <time>2011-02-13T08:42:35Z</time>
      </trkpt>
      <trkpt lat="49.90578" lon="1.02121">
        <ele>128</ele>
        <time>2011-02-13T08:42:49Z</time>
      </trkpt>
      <trkpt lat="49.90527" lon="1.02132">
        <ele>128</ele>
        <time>2011-02-13T08:43:03Z</time>
      </trkpt>
      <trkpt lat="49.90484" lon="1.02132">
        <ele>129</ele>
        <time>2011-02-13T08:43:17Z</time>
      </trkpt>
      <trkpt lat="49.90509" lon="1.02187">
        <ele>132</ele>
        <time>2011-02-13T08:43:31Z</time>
      </trkpt>
      <trkpt lat="49.9059" lon="1.02247">
        <ele>131</ele>
        <time>2011-02-13T08:43:45Z</time>
      </trkpt>
      <trkpt lat="49.90694" lon="1.0232">
        <ele>129</ele>
        <time>2011-02-13T08:43:59Z</time>
      </trkpt>
      <trkpt lat="49.90811" lon="1.02403">
        <ele>126</ele>
        <time>2011-02-13T08:44:13Z</time>
      </trkpt>
      <trkpt lat="49.90885" lon="1.02531">
        <ele>125</ele>
        <time>2011-02-13T08:44:27Z</time>
      </trkpt>
      <trkpt lat="49.90909" lon="1.02706">
        <ele>119</ele>
        <time>2011-02-13T08:44:41Z</time>
      </trkpt>
      <trkpt lat="49.90963" lon="1.02873">
        <ele>116</ele>
        <time>2011-02-13T08:44:55Z</time>
      </trkpt>
      <trkpt lat="49.91039" lon="1.03034">
        <ele>111</ele>
        <time>2011-02-13T08:45:09Z</time>
      </trkpt>
      <trkpt lat="49.91126" lon="1.03182">
        <ele>108</ele>
        <time>2011-02-13T08:45:23Z</time>
      </trkpt>
      <trkpt lat="49.91235" lon="1.03246">
        <ele>98</ele>
        <time>2011-02-13T08:45:37Z</time>
      </trkpt>
      <trkpt lat="49.91357" lon="1.03241">
        <ele>85</ele>
        <time>2011-02-13T08:45:51Z</time>
      </trkpt>
      <trkpt lat="49.91441" lon="1.03077">
        <ele>76</ele>
        <time>2011-02-13T08:46:05Z</time>
      </trkpt>
      <trkpt lat="49.91477" lon="1.03064">
        <ele>73</ele>
        <time>2011-02-13T08:46:19Z</time>
      </trkpt>
      <trkpt lat="49.91427" lon="1.03186">
        <ele>66</ele>
        <time>2011-02-13T08:46:33Z</time>
      </trkpt>
      <trkpt lat="49.91392" lon="1.03311">
        <ele>65</ele>
        <time>2011-02-13T08:46:47Z</time>
      </trkpt>
      <trkpt lat="49.91342" lon="1.0341">
        <ele>62</ele>
        <time>2011-02-13T08:47:01Z</time>
      </trkpt>
      <trkpt lat="49.91283" lon="1.03482">
        <ele>59</ele>
        <time>2011-02-13T08:47:15Z</time>
      </trkpt>
      <trkpt lat="49.9122" lon="1.03553">
        <ele>58</ele>
        <time>2011-02-13T08:47:29Z</time>
      </trkpt>
      <trkpt lat="49.91157" lon="1.03632">
        <ele>57</ele>
        <time>2011-02-13T08:47:43Z</time>
      </trkpt>
      <trkpt lat="49.91103" lon="1.03723">
        <ele>57</ele>
        <time>2011-02-13T08:47:57Z</time>
      </trkpt>
      <trkpt lat="49.91052" lon="1.03813">
        <ele>55</ele>
        <time>2011-02-13T08:48:11Z</time>
      </trkpt>
      <trkpt lat="49.91001" lon="1.03899">
        <ele>53</ele>
        <time>2011-02-13T08:48:25Z</time>
      </trkpt>
      <trkpt lat="49.90948" lon="1.03972">
        <ele>52</ele>
        <time>2011-02-13T08:48:39Z</time>
      </trkpt>
      <trkpt lat="49.9089" lon="1.04045">
        <ele>51</ele>
        <time>2011-02-13T08:48:53Z</time>
      </trkpt>
      <trkpt lat="49.9083" lon="1.04119">
        <ele>50</ele>
        <time>2011-02-13T08:49:07Z</time>
      </trkpt>
      <trkpt lat="49.90771" lon="1.04192">
        <ele>50</ele>
        <time>2011-02-13T08:49:21Z</time>
      </trkpt>
      <trkpt lat="49.90712" lon="1.04264">
        <ele>50</ele>
        <time>2011-02-13T08:49:35Z</time>
      </trkpt>
      <trkpt lat="49.90653" lon="1.04344">
        <ele>50</ele>
        <time>2011-02-13T08:49:49Z</time>
      </trkpt>
      <trkpt lat="49.90609" lon="1.04454">
        <ele>50</ele>
        <time>2011-02-13T08:50:03Z</time>
      </trkpt>
      <trkpt lat="49.90572" lon="1.04581">
        <ele>50</ele>
        <time>2011-02-13T08:50:17Z</time>
      </trkpt>
      <trkpt lat="49.90538" lon="1.04692">
        <ele>51</ele>
        <time>2011-02-13T08:50:31Z</time>
      </trkpt>
      <trkpt lat="49.90503" lon="1.04812">
        <ele>51</ele>
        <time>2011-02-13T08:50:45Z</time>
      </trkpt>
      <trkpt lat="49.90466" lon="1.04928">
        <ele>52</ele>
        <time>2011-02-13T08:50:59Z</time>
      </trkpt>
      <trkpt lat="49.90399" lon="1.05017">
        <ele>52</ele>
        <time>2011-02-13T08:51:13Z</time>
      </trkpt>
      <trkpt lat="49.90326" lon="1.05074">
        <ele>50</ele>
        <time>2011-02-13T08:51:27Z</time>
      </trkpt>
      <trkpt lat="49.90263" lon="1.0512">
        <ele>50</ele>
        <time>2011-02-13T08:51:41Z</time>
      </trkpt>
      <trkpt lat="49.90194" lon="1.05133">
        <ele>50</ele>
        <time>2011-02-13T08:51:55Z</time>
      </trkpt>
      <trkpt lat="49.9016" lon="1.05158">
        <ele>51</ele>
        <time>2011-02-13T08:52:09Z</time>
      </trkpt>
      <trkpt lat="49.90153" lon="1.05162">
        <ele>52</ele>
        <time>2011-02-13T08:52:42Z</time>
      </trkpt>
      <trkpt lat="49.90088" lon="1.05204">
        <ele>55</ele>
        <time>2011-02-13T08:52:56Z</time>
      </trkpt>
      <trkpt lat="49.90003" lon="1.0525">
        <ele>55</ele>
        <time>2011-02-13T08:53:10Z</time>
      </trkpt>
      <trkpt lat="49.89925" lon="1.05289">
        <ele>54</ele>
        <time>2011-02-13T08:53:24Z</time>
      </trkpt>
      <trkpt lat="49.8985" lon="1.0533">
        <ele>54</ele>
        <time>2011-02-13T08:53:38Z</time>
      </trkpt>
      <trkpt lat="49.89775" lon="1.05357">
        <ele>54</ele>
        <time>2011-02-13T08:53:52Z</time>
      </trkpt>
      <trkpt lat="49.89708" lon="1.05375">
        <ele>55</ele>
        <time>2011-02-13T08:54:06Z</time>
      </trkpt>
      <trkpt lat="49.89652" lon="1.05423">
        <ele>57</ele>
        <time>2011-02-13T08:54:20Z</time>
      </trkpt>
      <trkpt lat="49.89599" lon="1.05431">
        <ele>58</ele>
        <time>2011-02-13T08:54:34Z</time>
      </trkpt>
      <trkpt lat="49.89545" lon="1.05441">
        <ele>57</ele>
        <time>2011-02-13T08:54:48Z</time>
      </trkpt>
      <trkpt lat="49.89492" lon="1.05442">
        <ele>55</ele>
        <time>2011-02-13T08:55:02Z</time>
      </trkpt>
      <trkpt lat="49.89443" lon="1.05439">
        <ele>55</ele>
        <time>2011-02-13T08:55:16Z</time>
      </trkpt>
      <trkpt lat="49.89387" lon="1.05441">
        <ele>56</ele>
        <time>2011-02-13T08:55:30Z</time>
      </trkpt>
      <trkpt lat="49.89333" lon="1.05444">
        <ele>57</ele>
        <time>2011-02-13T08:55:44Z</time>
      </trkpt>
      <trkpt lat="49.89283" lon="1.05452">
        <ele>58</ele>
        <time>2011-02-13T08:55:58Z</time>
      </trkpt>
      <trkpt lat="49.89236" lon="1.05464">
        <ele>59</ele>
        <time>2011-02-13T08:56:12Z</time>
      </trkpt>
      <trkpt lat="49.89184" lon="1.0549">
        <ele>60</ele>
        <time>2011-02-13T08:56:26Z</time>
      </trkpt>
      <trkpt lat="49.89129" lon="1.05522">
        <ele>61</ele>
        <time>2011-02-13T08:56:40Z</time>
      </trkpt>
      <trkpt lat="49.89057" lon="1.05625">
        <ele>67</ele>
        <time>2011-02-13T08:56:54Z</time>
      </trkpt>
      <trkpt lat="49.89002" lon="1.05676">
        <ele>68</ele>
        <time>2011-02-13T08:57:08Z</time>
      </trkpt>
      <trkpt lat="49.88954" lon="1.05715">
        <ele>69</ele>
        <time>2011-02-13T08:57:22Z</time>
      </trkpt>
      <trkpt lat="49.88906" lon="1.05754">
        <ele>71</ele>
        <time>2011-02-13T08:57:36Z</time>
      </trkpt>
      <trkpt lat="49.88854" lon="1.05792">
        <ele>71</ele>
        <time>2011-02-13T08:57:50Z</time>
      </trkpt>
      <trkpt lat="49.88801" lon="1.05832">
        <ele>72</ele>
        <time>2011-02-13T08:58:04Z</time>
      </trkpt>
      <trkpt lat="49.88753" lon="1.05859">
        <ele>73</ele>
        <time>2011-02-13T08:58:18Z</time>
      </trkpt>
      <trkpt lat="49.88692" lon="1.05883">
        <ele>76</ele>
        <time>2011-02-13T08:58:32Z</time>
      </trkpt>
      <trkpt lat="49.88637" lon="1.05895">
        <ele>78</ele>
        <time>2011-02-13T08:58:46Z</time>
      </trkpt>
      <trkpt lat="49.88566" lon="1.05904">
        <ele>80</ele>
        <time>2011-02-13T08:59:00Z</time>
      </trkpt>
      <trkpt lat="49.8851" lon="1.05919">
        <ele>81</ele>
        <time>2011-02-13T08:59:14Z</time>
      </trkpt>
      <trkpt lat="49.88453" lon="1.05939">
        <ele>85</ele>
        <time>2011-02-13T08:59:28Z</time>
      </trkpt>
      <trkpt lat="49.88389" lon="1.0596">
        <ele>87</ele>
        <time>2011-02-13T08:59:42Z</time>
      </trkpt>
      <trkpt lat="49.88325" lon="1.05982">
        <ele>88</ele>
        <time>2011-02-13T08:59:56Z</time>
      </trkpt>
      <trkpt lat="49.88265" lon="1.06004">
        <ele>90</ele>
        <time>2011-02-13T09:00:10Z</time>
      </trkpt>
      <trkpt lat="49.88208" lon="1.06016">
        <ele>92</ele>
        <time>2011-02-13T09:00:24Z</time>
      </trkpt>
      <trkpt lat="49.88142" lon="1.06024">
        <ele>95</ele>
        <time>2011-02-13T09:00:38Z</time>
      </trkpt>
      <trkpt lat="49.88068" lon="1.06034">
        <ele>96</ele>
        <time>2011-02-13T09:00:52Z</time>
      </trkpt>
      <trkpt lat="49.87992" lon="1.06047">
        <ele>97</ele>
        <time>2011-02-13T09:01:06Z</time>
      </trkpt>
      <trkpt lat="49.87932" lon="1.06057">
        <ele>96</ele>
        <time>2011-02-13T09:01:20Z</time>
      </trkpt>
      <trkpt lat="49.87881" lon="1.06066">
        <ele>96</ele>
        <time>2011-02-13T09:01:34Z</time>
      </trkpt>
      <trkpt lat="49.87825" lon="1.06079">
        <ele>99</ele>
        <time>2011-02-13T09:01:48Z</time>
      </trkpt>
      <trkpt lat="49.87756" lon="1.06096">
        <ele>106</ele>
        <time>2011-02-13T09:02:02Z</time>
      </trkpt>
      <trkpt lat="49.8769" lon="1.0612">
        <ele>107</ele>
        <time>2011-02-13T09:02:16Z</time>
      </trkpt>
      <trkpt lat="49.87629" lon="1.06141">
        <ele>108</ele>
        <time>2011-02-13T09:02:30Z</time>
      </trkpt>
      <trkpt lat="49.87566" lon="1.0616">
        <ele>112</ele>
        <time>2011-02-13T09:02:44Z</time>
      </trkpt>
      <trkpt lat="49.87499" lon="1.06185">
        <ele>110</ele>
        <time>2011-02-13T09:02:58Z</time>
      </trkpt>
      <trkpt lat="49.87441" lon="1.06209">
        <ele>110</ele>
        <time>2011-02-13T09:03:12Z</time>
      </trkpt>
      <trkpt lat="49.87382" lon="1.06235">
        <ele>114</ele>
        <time>2011-02-13T09:03:26Z</time>
      </trkpt>
      <trkpt lat="49.87324" lon="1.06255">
        <ele>114</ele>
        <time>2011-02-13T09:03:40Z</time>
      </trkpt>
      <trkpt lat="49.87263" lon="1.0626">
        <ele>115</ele>
        <time>2011-02-13T09:03:54Z</time>
      </trkpt>
      <trkpt lat="49.87188" lon="1.06237">
        <ele>117</ele>
        <time>2011-02-13T09:04:08Z</time>
      </trkpt>
      <trkpt lat="49.87119" lon="1.06199">
        <ele>122</ele>
        <time>2011-02-13T09:04:22Z</time>
      </trkpt>
      <trkpt lat="49.87069" lon="1.06148">
        <ele>126</ele>
        <time>2011-02-13T09:04:36Z</time>
      </trkpt>
      <trkpt lat="49.87026" lon="1.06078">
        <ele>132</ele>
        <time>2011-02-13T09:04:50Z</time>
      </trkpt>
      <trkpt lat="49.86995" lon="1.05999">
        <ele>134</ele>
        <time>2011-02-13T09:05:04Z</time>
      </trkpt>
      <trkpt lat="49.86966" lon="1.05895">
        <ele>138</ele>
        <time>2011-02-13T09:05:18Z</time>
      </trkpt>
      <trkpt lat="49.86931" lon="1.05799">
        <ele>134</ele>
        <time>2011-02-13T09:05:32Z</time>
      </trkpt>
      <trkpt lat="49.86905" lon="1.05713">
        <ele>133</ele>
        <time>2011-02-13T09:05:46Z</time>
      </trkpt>
      <trkpt lat="49.86898" lon="1.0566">
        <ele>132</ele>
        <time>2011-02-13T09:06:00Z</time>
      </trkpt>
      <trkpt lat="49.86889" lon="1.05592">
        <ele>131</ele>
        <time>2011-02-13T09:06:14Z</time>
      </trkpt>
      <trkpt lat="49.86891" lon="1.05518">
        <ele>130</ele>
        <time>2011-02-13T09:06:28Z</time>
      </trkpt>
      <trkpt lat="49.86907" lon="1.05463">
        <ele>129</ele>
        <time>2011-02-13T09:06:42Z</time>
      </trkpt>
      <trkpt lat="49.8694" lon="1.0545">
        <ele>129</ele>
        <time>2011-02-13T09:06:56Z</time>
      </trkpt>
      <trkpt lat="49.86984" lon="1.05421">
        <ele>129</ele>
        <time>2011-02-13T09:07:10Z</time>
      </trkpt>
      <trkpt lat="49.87035" lon="1.05381">
        <ele>131</ele>
        <time>2011-02-13T09:07:24Z</time>
      </trkpt>
      <trkpt lat="49.87088" lon="1.05338">
        <ele>131</ele>
        <time>2011-02-13T09:07:38Z</time>
      </trkpt>
      <trkpt lat="49.87152" lon="1.05296">
        <ele>130</ele>
        <time>2011-02-13T09:07:52Z</time>
      </trkpt>
      <trkpt lat="49.87227" lon="1.05272">
        <ele>130</ele>
        <time>2011-02-13T09:08:06Z</time>
      </trkpt>
      <trkpt lat="49.87307" lon="1.05245">
        <ele>129</ele>
        <time>2011-02-13T09:08:20Z</time>
      </trkpt>
      <trkpt lat="49.87391" lon="1.05198">
        <ele>128</ele>
        <time>2011-02-13T09:08:34Z</time>
      </trkpt>
      <trkpt lat="49.87474" lon="1.0514">
        <ele>130</ele>
        <time>2011-02-13T09:08:48Z</time>
      </trkpt>
      <trkpt lat="49.87556" lon="1.05088">
        <ele>132</ele>
        <time>2011-02-13T09:09:02Z</time>
      </trkpt>
      <trkpt lat="49.87631" lon="1.05046">
        <ele>131</ele>
        <time>2011-02-13T09:09:16Z</time>
      </trkpt>
      <trkpt lat="49.87712" lon="1.04998">
        <ele>128</ele>
        <time>2011-02-13T09:09:30Z</time>
      </trkpt>
      <trkpt lat="49.87796" lon="1.04975">
        <ele>127</ele>
        <time>2011-02-13T09:09:44Z</time>
      </trkpt>
      <trkpt lat="49.87864" lon="1.04911">
        <ele>126</ele>
        <time>2011-02-13T09:09:58Z</time>
      </trkpt>
      <trkpt lat="49.87879" lon="1.04847">
        <ele>126</ele>
        <time>2011-02-13T09:10:12Z</time>
      </trkpt>
      <trkpt lat="49.87921" lon="1.04769">
        <ele>125</ele>
        <time>2011-02-13T09:10:26Z</time>
      </trkpt>
      <trkpt lat="49.8798" lon="1.04693">
        <ele>126</ele>
        <time>2011-02-13T09:10:40Z</time>
      </trkpt>
      <trkpt lat="49.88057" lon="1.04641">
        <ele>126</ele>
        <time>2011-02-13T09:10:54Z</time>
      </trkpt>
      <trkpt lat="49.88137" lon="1.0459">
        <ele>124</ele>
        <time>2011-02-13T09:11:08Z</time>
      </trkpt>
      <trkpt lat="49.88211" lon="1.04556">
        <ele>124</ele>
        <time>2011-02-13T09:11:22Z</time>
      </trkpt>
      <trkpt lat="49.88285" lon="1.04525">
        <ele>126</ele>
        <time>2011-02-13T09:11:36Z</time>
      </trkpt>
      <trkpt lat="49.88352" lon="1.04493">
        <ele>124</ele>
        <time>2011-02-13T09:11:50Z</time>
      </trkpt>
      <trkpt lat="49.8842" lon="1.04456">
        <ele>123</ele>
        <time>2011-02-13T09:12:04Z</time>
      </trkpt>
      <trkpt lat="49.88491" lon="1.04403">
        <ele>125</ele>
        <time>2011-02-13T09:12:18Z</time>
      </trkpt>
      <trkpt lat="49.88565" lon="1.04327">
        <ele>126</ele>
        <time>2011-02-13T09:12:32Z</time>
      </trkpt>
      <trkpt lat="49.88626" lon="1.04261">
        <ele>128</ele>
        <time>2011-02-13T09:12:46Z</time>
      </trkpt>
      <trkpt lat="49.88704" lon="1.04284">
        <ele>129</ele>
        <time>2011-02-13T09:13:00Z</time>
      </trkpt>
      <trkpt lat="49.88789" lon="1.0433">
        <ele>129</ele>
        <time>2011-02-13T09:13:14Z</time>
      </trkpt>
      <trkpt lat="49.88876" lon="1.04361">
        <ele>127</ele>
        <time>2011-02-13T09:13:28Z</time>
      </trkpt>
      <trkpt lat="49.88984" lon="1.04384">
        <ele>126</ele>
        <time>2011-02-13T09:13:42Z</time>
      </trkpt>
      <trkpt lat="49.89099" lon="1.04435">
        <ele>125</ele>
        <time>2011-02-13T09:13:56Z</time>
      </trkpt>
      <trkpt lat="49.89169" lon="1.04521">
        <ele>123</ele>
        <time>2011-02-13T09:14:10Z</time>
      </trkpt>
      <trkpt lat="49.89224" lon="1.04591">
        <ele>121</ele>
        <time>2011-02-13T09:14:24Z</time>
      </trkpt>
      <trkpt lat="49.89258" lon="1.04653">
        <ele>121</ele>
        <time>2011-02-13T09:14:38Z</time>
      </trkpt>
      <trkpt lat="49.89292" lon="1.04725">
        <ele>121</ele>
        <time>2011-02-13T09:14:52Z</time>
      </trkpt>
      <trkpt lat="49.89326" lon="1.04786">
        <ele>121</ele>
        <time>2011-02-13T09:15:06Z</time>
      </trkpt>
      <trkpt lat="49.89341" lon="1.04889">
        <ele>121</ele>
        <time>2011-02-13T09:15:20Z</time>
      </trkpt>
      <trkpt lat="49.89356" lon="1.05047">
        <ele>119</ele>
        <time>2011-02-13T09:15:34Z</time>
      </trkpt>
      <trkpt lat="49.89428" lon="1.05208">
        <ele>117</ele>
        <time>2011-02-13T09:15:48Z</time>
      </trkpt>
      <trkpt lat="49.8957" lon="1.05238">
        <ele>114</ele>
        <time>2011-02-13T09:16:02Z</time>
      </trkpt>
      <trkpt lat="49.89717" lon="1.05164">
        <ele>106</ele>
        <time>2011-02-13T09:16:16Z</time>
      </trkpt>
      <trkpt lat="49.8986" lon="1.05096">
        <ele>91</ele>
        <time>2011-02-13T09:16:30Z</time>
      </trkpt>
      <trkpt lat="49.90004" lon="1.05097">
        <ele>78</ele>
        <time>2011-02-13T09:16:44Z</time>
      </trkpt>
      <trkpt lat="49.90005" lon="1.05048">
        <ele>76</ele>
        <time>2011-02-13T09:16:58Z</time>
      </trkpt>
      <trkpt lat="49.89985" lon="1.04993">
        <ele>75</ele>
        <time>2011-02-13T09:17:12Z</time>
      </trkpt>
      <trkpt lat="49.89971" lon="1.04937">
        <ele>75</ele>
        <time>2011-02-13T09:17:26Z</time>
      </trkpt>
      <trkpt lat="49.89965" lon="1.04909">
        <ele>75</ele>
        <time>2011-02-13T09:17:40Z</time>
      </trkpt>
      <trkpt lat="49.89963" lon="1.04896">
        <ele>75</ele>
        <time>2011-02-13T09:18:07Z</time>
      </trkpt>
      <trkpt lat="49.89956" lon="1.04839">
        <ele>76</ele>
        <time>2011-02-13T09:18:21Z</time>
      </trkpt>
      <trkpt lat="49.89955" lon="1.04775">
        <ele>77</ele>
        <time>2011-02-13T09:18:35Z</time>
      </trkpt>
      <trkpt lat="49.89953" lon="1.04713">
        <ele>78</ele>
        <time>2011-02-13T09:18:49Z</time>
      </trkpt>
      <trkpt lat="49.89949" lon="1.04653">
        <ele>79</ele>
        <time>2011-02-13T09:19:03Z</time>
      </trkpt>
      <trkpt lat="49.8994" lon="1.04591">
        <ele>80</ele>
        <time>2011-02-13T09:19:17Z</time>
      </trkpt>
      <trkpt lat="49.89929" lon="1.04527">
        <ele>81</ele>
        <time>2011-02-13T09:19:31Z</time>
      </trkpt>
      <trkpt lat="49.89929" lon="1.04459">
        <ele>82</ele>
        <time>2011-02-13T09:19:45Z</time>
      </trkpt>
      <trkpt lat="49.89935" lon="1.04391">
        <ele>83</ele>
        <time>2011-02-13T09:19:59Z</time>
      </trkpt>
      <trkpt lat="49.89944" lon="1.0432">
        <ele>84</ele>
        <time>2011-02-13T09:20:13Z</time>
      </trkpt>
      <trkpt lat="49.89952" lon="1.04248">
        <ele>85</ele>
        <time>2011-02-13T09:20:27Z</time>
      </trkpt>
      <trkpt lat="49.89951" lon="1.04184">
        <ele>87</ele>
        <time>2011-02-13T09:20:41Z</time>
      </trkpt>
      <trkpt lat="49.89924" lon="1.04137">
        <ele>88</ele>
        <time>2011-02-13T09:20:55Z</time>
      </trkpt>
      <trkpt lat="49.89889" lon="1.04105">
        <ele>89</ele>
        <time>2011-02-13T09:21:09Z</time>
      </trkpt>
      <trkpt lat="49.89853" lon="1.04072">
        <ele>91</ele>
        <time>2011-02-13T09:21:23Z</time>
      </trkpt>
      <trkpt lat="49.89813" lon="1.04036">
        <ele>94</ele>
        <time>2011-02-13T09:21:37Z</time>
      </trkpt>
      <trkpt lat="49.89778" lon="1.04003">
        <ele>97</ele>
        <time>2011-02-13T09:21:51Z</time>
      </trkpt>
      <trkpt lat="49.89745" lon="1.03967">
        <ele>100</ele>
        <time>2011-02-13T09:22:05Z</time>
      </trkpt>
      <trkpt lat="49.89716" lon="1.0393">
        <ele>102</ele>
        <time>2011-02-13T09:22:19Z</time>
      </trkpt>
      <trkpt lat="49.89692" lon="1.03887">
        <ele>105</ele>
        <time>2011-02-13T09:22:33Z</time>
      </trkpt>
      <trkpt lat="49.89664" lon="1.0384">
        <ele>107</ele>
        <time>2011-02-13T09:22:47Z</time>
      </trkpt>
      <trkpt lat="49.89638" lon="1.03792">
        <ele>110</ele>
        <time>2011-02-13T09:23:01Z</time>
      </trkpt>
      <trkpt lat="49.89615" lon="1.03748">
        <ele>112</ele>
        <time>2011-02-13T09:23:15Z</time>
      </trkpt>
      <trkpt lat="49.89593" lon="1.03704">
        <ele>114</ele>
        <time>2011-02-13T09:23:29Z</time>
      </trkpt>
      <trkpt lat="49.89575" lon="1.0366">
        <ele>117</ele>
        <time>2011-02-13T09:23:43Z</time>
      </trkpt>
      <trkpt lat="49.89552" lon="1.03615">
        <ele>119</ele>
        <time>2011-02-13T09:23:57Z</time>
      </trkpt>
      <trkpt lat="49.89525" lon="1.03579">
        <ele>121</ele>
        <time>2011-02-13T09:24:11Z</time>
      </trkpt>
      <trkpt lat="49.89511" lon="1.03541">
        <ele>123</ele>
        <time>2011-02-13T09:24:25Z</time>
      </trkpt>
      <trkpt lat="49.89535" lon="1.0352">
        <ele>126</ele>
        <time>2011-02-13T09:24:40Z</time>
      </trkpt>
      <trkpt lat="49.89554" lon="1.03549">
        <ele>128</ele>
        <time>2011-02-13T09:24:54Z</time>
      </trkpt>
      <trkpt lat="49.89576" lon="1.03538">
        <ele>130</ele>
        <time>2011-02-13T09:25:08Z</time>
      </trkpt>
      <trkpt lat="49.89577" lon="1.0355">
        <ele>133</ele>
        <time>2011-02-13T09:25:26Z</time>
      </trkpt>
      <trkpt lat="49.89565" lon="1.03553">
        <ele>134</ele>
        <time>2011-02-13T09:25:40Z</time>
      </trkpt>
      <trkpt lat="49.89572" lon="1.03548">
        <ele>137</ele>
        <time>2011-02-13T09:28:59Z</time>
      </trkpt>
      <trkpt lat="49.89575" lon="1.03526">
        <ele>138</ele>
        <time>2011-02-13T09:29:13Z</time>
      </trkpt>
      <trkpt lat="49.89563" lon="1.03513">
        <ele>139</ele>
        <time>2011-02-13T09:29:27Z</time>
      </trkpt>
      <trkpt lat="49.89555" lon="1.03507">
        <ele>139</ele>
        <time>2011-02-13T09:29:49Z</time>
      </trkpt>
    </trkseg>
  </trk>
</gpx>